Nizhnevartovsk, Russia
Current Conditions -  °F | °C
As of 11:30 PM on Thursday 27 Nov 2014 (Local Time) from USNN Reporting Station
Clear Clear  
Wind Chill: -46°   Ceiling: Unl
Heat Index: -27°   Visibility: 6mi
Dew Point: -36°   Wind: 7mph
Humidity: 62%   Direction: 300°WNW
Pressure: 30.24"   Gusts: 13mph
Location:  60.93°N, 76.57°E
Report Text: USNN 271830Z 30003G06MPS 280V050 CAVOK M33/M38 Q1024 NOSIG RMKQFE763 21410260
Loading
Personal Weather Stations






























Interactive Weather Map New forecast layout! Learn more

10-Day Weather Forecast

Advertisements
Track Severe Weather on mobile